sensor_id;sensor_type;location;lat;lon;timestamp;pressure;altitude;pressure_sealevel;temperature;humidity
11440;BME280;5776;51.814;4.510;2023-12-20T00:01:51;101702.19;;;6.91;100.00
11440;BME280;5776;51.814;4.510;2023-12-20T00:04:16;101708.91;;;6.89;100.00
11440;BME280;5776;51.814;4.510;2023-12-20T00:06:42;101705.88;;;6.85;100.00
11440;BME280;5776;51.814;4.510;2023-12-20T00:09:08;101707.19;;;6.83;100.00
11440;BME280;5776;51.814;4.510;2023-12-20T00:11:34;101711.28;;;6.85;100.00
11440;BME280;5776;51.814;4.510;2023-12-20T00:14:00;101708.22;;;6.82;100.00
11440;BME280;5776;51.814;4.510;2023-12-20T00:16:25;101713.97;;;6.85;100.00
11440;BME280;5776;51.814;4.510;2023-12-20T00:18:52;101713.16;;;6.85;100.00
11440;BME280;5776;51.814;4.510;2023-12-20T00:21:18;101701.88;;;6.88;100.00
11440;BME280;5776;51.814;4.510;2023-12-20T00:23:44;101698.91;;;6.89;100.00
11440;BME280;5776;51.814;4.510;2023-12-20T00:26:10;101693.09;;;6.81;100.00
11440;BME280;5776;51.814;4.510;2023-12-20T00:28:35;101688.19;;;6.78;100.00
11440;BME280;5776;51.814;4.510;2023-12-20T00:31:01;101696.38;;;6.83;100.00
11440;BME280;5776;51.814;4.510;2023-12-20T00:33:27;101691.78;;;6.83;100.00
11440;BME280;5776;51.814;4.510;2023-12-20T00:35:54;101692.41;;;6.74;100.00
11440;BME280;5776;51.814;4.510;2023-12-20T00:38:20;101691.47;;;6.80;100.00
11440;BME280;5776;51.814;4.510;2023-12-20T00:40:46;101685.72;;;6.76;100.00
11440;BME280;5776;51.814;4.510;2023-12-20T00:43:14;101688.41;;;6.76;100.00
11440;BME280;5776;51.814;4.510;2023-12-20T00:45:40;101699.47;;;6.75;100.00
11440;BME280;5776;51.814;4.510;2023-12-20T00:48:06;101700.53;;;6.74;100.00
11440;BME280;5776;51.814;4.510;2023-12-20T00:50:31;101703.22;;;6.74;100.00
11440;BME280;5776;51.814;4.510;2023-12-20T00:52:57;101706.16;;;6.72;100.00
11440;BME280;5776;51.814;4.510;2023-12-20T00:55:23;101708.13;;;6.77;100.00
11440;BME280;5776;51.814;4.510;2023-12-20T00:57:49;101699.13;;;6.71;100.00
11440;BME280;5776;51.814;4.510;2023-12-20T01:00:16;101704.88;;;6.75;100.00
11440;BME280;5776;51.814;4.510;2023-12-20T01:02:41;101693.72;;;6.71;100.00
11440;BME280;5776;51.814;4.510;2023-12-20T01:05:07;101689.94;;;6.72;100.00
11440;BME280;5776;51.814;4.510;2023-12-20T01:07:35;101691.03;;;6.71;100.00
11440;BME280;5776;51.814;4.510;2023-12-20T01:10:01;101692.91;;;6.70;100.00
11440;BME280;5776;51.814;4.510;2023-12-20T01:12:26;101699.94;;;6.71;100.00
11440;BME280;5776;51.814;4.510;2023-12-20T01:14:52;101701.22;;;6.69;100.00
11440;BME280;5776;51.814;4.510;2023-12-20T01:17:18;101699.34;;;6.69;100.00
11440;BME280;5776;51.814;4.510;2023-12-20T01:19:45;101713.09;;;6.68;100.00
11440;BME280;5776;51.814;4.510;2023-12-20T01:22:11;101711.31;;;6.74;100.00
11440;BME280;5776;51.814;4.510;2023-12-20T01:24:37;101701.22;;;6.69;100.00
11440;BME280;5776;51.814;4.510;2023-12-20T01:27:03;101695.34;;;6.72;100.00
11440;BME280;5776;51.814;4.510;2023-12-20T01:29:28;101692.66;;;6.72;100.00
11440;BME280;5776;51.814;4.510;2023-12-20T01:31:54;101695.59;;;6.70;100.00
11440;BME280;5776;51.814;4.510;2023-12-20T01:34:20;101694.78;;;6.70;100.00
11440;BME280;5776;51.814;4.510;2023-12-20T01:36:46;101701.59;;;6.73;100.00
11440;BME280;5776;51.814;4.510;2023-12-20T01:39:12;101690.13;;;6.65;100.00
11440;BME280;5776;51.814;4.510;2023-12-20T01:41:37;101702.91;;;6.70;100.00
11440;BME280;5776;51.814;4.510;2023-12-20T01:44:04;101693.94;;;6.69;100.00
11440;BME280;5776;51.814;4.510;2023-12-20T01:46:31;101696.19;;;6.73;100.00
11440;BME280;5776;51.814;4.510;2023-12-20T01:48:57;101696.53;;;6.76;100.00
11440;BME280;5776;51.814;4.510;2023-12-20T01:51:22;101701.34;;;6.74;100.00
11440;BME280;5776;51.814;4.510;2023-12-20T01:53:49;101689.81;;;6.79;100.00
11440;BME280;5776;51.814;4.510;2023-12-20T01:56:16;101697.31;;;6.77;100.00
11440;BME280;5776;51.814;4.510;2023-12-20T01:58:44;101690.97;;;6.83;100.00
11440;BME280;5776;51.814;4.510;2023-12-20T02:01:11;101694.16;;;6.80;100.00
11440;BME280;5776;51.814;4.510;2023-12-20T02:03:40;101688.88;;;6.85;100.00
11440;BME280;5776;51.814;4.510;2023-12-20T02:06:07;101694.72;;;6.82;100.00
11440;BME280;5776;51.814;4.510;2023-12-20T02:08:34;101695.06;;;6.85;100.00
11440;BME280;5776;51.814;4.510;2023-12-20T02:11:00;101701.53;;;6.84;100.00
11440;BME280;5776;51.814;4.510;2023-12-20T02:13:27;101701.28;;;6.86;100.00
11440;BME280;5776;51.814;4.510;2023-12-20T02:15:54;101699.66;;;6.85;100.00
11440;BME280;5776;51.814;4.510;2023-12-20T02:18:20;101700.13;;;6.82;100.00
11440;BME280;5776;51.814;4.510;2023-12-20T02:20:47;101695.31;;;6.84;100.00
11440;BME280;5776;51.814;4.510;2023-12-20T02:23:13;101699.66;;;6.85;100.00
11440;BME280;5776;51.814;4.510;2023-12-20T02:25:41;101685.50;;;6.78;100.00
11440;BME280;5776;51.814;4.510;2023-12-20T02:28:07;101684.19;;;6.80;100.00
11440;BME280;5776;51.814;4.510;2023-12-20T02:30:33;101686.06;;;6.80;100.00
11440;BME280;5776;51.814;4.510;2023-12-20T02:33:00;101687.47;;;6.82;100.00
11440;BME280;5776;51.814;4.510;2023-12-20T02:35:26;101685.22;;;6.79;100.00
11440;BME280;5776;51.814;4.510;2023-12-20T02:37:52;101683.38;;;6.80;100.00
11440;BME280;5776;51.814;4.510;2023-12-20T02:40:18;101683.19;;;6.86;100.00
11440;BME280;5776;51.814;4.510;2023-12-20T02:42:44;101690.00;;;6.89;100.00
11440;BME280;5776;51.814;4.510;2023-12-20T02:45:10;101681.97;;;6.77;100.00
11440;BME280;5776;51.814;4.510;2023-12-20T02:47:36;101676.41;;;6.84;100.00
11440;BME280;5776;51.814;4.510;2023-12-20T02:50:02;101676.41;;;6.84;100.00
11440;BME280;5776;51.814;4.510;2023-12-20T02:52:28;101676.41;;;6.84;100.00
11440;BME280;5776;51.814;4.510;2023-12-20T02:54:54;101678.53;;;6.82;100.00
11440;BME280;5776;51.814;4.510;2023-12-20T02:57:20;101672.91;;;6.83;100.00
11440;BME280;5776;51.814;4.510;2023-12-20T02:59:46;101676.66;;;6.82;100.00
11440;BME280;5776;51.814;4.510;2023-12-20T03:02:12;101670.41;;;6.82;100.00
11440;BME280;5776;51.814;4.510;2023-12-20T03:04:39;101674.28;;;6.86;100.00
11440;BME280;5776;51.814;4.510;2023-12-20T03:07:05;101663.25;;;6.87;100.00
11440;BME280;5776;51.814;4.510;2023-12-20T03:09:30;101667.81;;;6.87;100.00
11440;BME280;5776;51.814;4.510;2023-12-20T03:11:56;101660.88;;;6.91;100.00
11440;BME280;5776;51.814;4.510;2023-12-20T03:14:21;101664.66;;;6.90;100.00
11440;BME280;5776;51.814;4.510;2023-12-20T03:16:49;101663.50;;;6.86;100.00
11440;BME280;5776;51.814;4.510;2023-12-20T03:19:17;101660.88;;;6.91;100.00
11440;BME280;5776;51.814;4.510;2023-12-20T03:21:43;101660.28;;;6.89;100.00
11440;BME280;5776;51.814;4.510;2023-12-20T03:24:09;101660.06;;;6.90;100.00
11440;BME280;5776;51.814;4.510;2023-12-20T03:26:35;101672.50;;;6.91;100.00
11440;BME280;5776;51.814;4.510;2023-12-20T03:29:03;101673.31;;;6.92;100.00
11440;BME280;5776;51.814;4.510;2023-12-20T03:31:28;101672.41;;;6.86;100.00
11440;BME280;5776;51.814;4.510;2023-12-20T03:33:54;101671.34;;;6.87;100.00
11440;BME280;5776;51.814;4.510;2023-12-20T03:36:20;101671.00;;;6.84;100.00
11440;BME280;5776;51.814;4.510;2023-12-20T03:38:47;101683.56;;;6.90;100.00
11440;BME280;5776;51.814;4.510;2023-12-20T03:41:14;101672.31;;;6.81;100.00
11440;BME280;5776;51.814;4.510;2023-12-20T03:43:40;101673.13;;;6.82;100.00
11440;BME280;5776;51.814;4.510;2023-12-20T03:46:10;101692.38;;;6.85;100.00
11440;BME280;5776;51.814;4.510;2023-12-20T03:48:36;101686.06;;;6.80;100.00
11440;BME280;5776;51.814;4.510;2023-12-20T03:51:02;101682.97;;;6.88;100.00
11440;BME280;5776;51.814;4.510;2023-12-20T03:53:27;101686.41;;;6.83;100.00
11440;BME280;5776;51.814;4.510;2023-12-20T03:55:53;101677.72;;;6.81;100.00
11440;BME280;5776;51.814;4.510;2023-12-20T03:58:19;101677.72;;;6.81;100.00
11440;BME280;5776;51.814;4.510;2023-12-20T04:00:46;101672.00;;;6.78;100.00
11440;BME280;5776;51.814;4.510;2023-12-20T04:03:12;101663.31;;;6.76;100.00
11440;BME280;5776;51.814;4.510;2023-12-20T04:05:40;101665.66;;;6.72;100.00
11440;BME280;5776;51.814;4.510;2023-12-20T04:08:07;101662.63;;;6.68;100.00
11440;BME280;5776;51.814;4.510;2023-12-20T04:10:33;101666.94;;;6.69;100.00
11440;BME280;5776;51.814;4.510;2023-12-20T04:12:59;101667.06;;;6.75;100.00
11440;BME280;5776;51.814;4.510;2023-12-20T04:15:26;101670.50;;;6.70;100.00
11440;BME280;5776;51.814;4.510;2023-12-20T04:17:52;101666.13;;;6.69;100.00
11440;BME280;5776;51.814;4.510;2023-12-20T04:20:18;101670.16;;;6.66;100.00
11440;BME280;5776;51.814;4.510;2023-12-20T04:22:44;101675.53;;;6.66;100.00
11440;BME280;5776;51.814;4.510;2023-12-20T04:25:09;101672.63;;;6.68;100.00
11440;BME280;5776;51.814;4.510;2023-12-20T04:27:37;101674.72;;;6.66;100.00
11440;BME280;5776;51.814;4.510;2023-12-20T04:30:03;101660.91;;;6.62;100.00
11440;BME280;5776;51.814;4.510;2023-12-20T04:32:29;101661.22;;;6.66;100.00
11440;BME280;5776;51.814;4.510;2023-12-20T04:34:55;101658.84;;;6.69;100.00
11440;BME280;5776;51.814;4.510;2023-12-20T04:37:20;101657.22;;;6.68;100.00
11440;BME280;5776;51.814;4.510;2023-12-20T04:39:46;101666.41;;;6.67;100.00
11440;BME280;5776;51.814;4.510;2023-12-20T04:42:14;101655.34;;;6.69;100.00
11440;BME280;5776;51.814;4.510;2023-12-20T04:44:40;101659.34;;;6.66;100.00
11440;BME280;5776;51.814;4.510;2023-12-20T04:47:06;101646.00;;;6.60;100.00
11440;BME280;5776;51.814;4.510;2023-12-20T04:49:32;101640.63;;;6.60;100.00
11440;BME280;5776;51.814;4.510;2023-12-20T04:52:29;101640.53;;;6.55;100.00
11440;BME280;5776;51.814;4.510;2023-12-20T04:54:54;101636.25;;;6.59;100.00
11440;BME280;5776;51.814;4.510;2023-12-20T04:57:21;101635.78;;;6.62;100.00
11440;BME280;5776;51.814;4.510;2023-12-20T04:59:48;101625.16;;;6.55;100.00
11440;BME280;5776;51.814;4.510;2023-12-20T05:02:16;101634.06;;;6.56;100.00
11440;BME280;5776;51.814;4.510;2023-12-20T05:04:41;101627.84;;;6.55;100.00
11440;BME280;5776;51.814;4.510;2023-12-20T05:07:07;101623.50;;;6.54;100.00
11440;BME280;5776;51.814;4.510;2023-12-20T05:09:34;101634.78;;;6.51;100.00
11440;BME280;5776;51.814;4.510;2023-12-20T05:12:00;101635.25;;;6.48;100.00
11440;BME280;5776;51.814;4.510;2023-12-20T05:14:26;101647.34;;;6.45;100.00
11440;BME280;5776;51.814;4.510;2023-12-20T05:16:53;101650.16;;;6.51;100.00
11440;BME280;5776;51.814;4.510;2023-12-20T05:19:21;101642.53;;;6.47;100.00
11440;BME280;5776;51.814;4.510;2023-12-20T05:21:47;101645.59;;;6.39;100.00
11440;BME280;5776;51.814;4.510;2023-12-20T05:24:13;101644.41;;;6.47;100.00
11440;BME280;5776;51.814;4.510;2023-12-20T05:26:39;101636.22;;;6.42;100.00
11440;BME280;5776;51.814;4.510;2023-12-20T05:29:05;101641.03;;;6.40;100.00
11440;BME280;5776;51.814;4.510;2023-12-20T05:31:31;101644.19;;;6.37;100.00
11440;BME280;5776;51.814;4.510;2023-12-20T05:33:56;101648.88;;;6.41;100.00
11440;BME280;5776;51.814;4.510;2023-12-20T05:36:23;101647.97;;;6.36;100.00
11440;BME280;5776;51.814;4.510;2023-12-20T05:38:50;101641.59;;;6.42;100.00
11440;BME280;5776;51.814;4.510;2023-12-20T05:41:17;101635.88;;;6.38;100.00
11440;BME280;5776;51.814;4.510;2023-12-20T05:43:43;101635.28;;;6.36;100.00
11440;BME280;5776;51.814;4.510;2023-12-20T05:46:11;101642.56;;;6.36;100.00
11440;BME280;5776;51.814;4.510;2023-12-20T05:48:37;101645.88;;;6.38;100.00
11440;BME280;5776;51.814;4.510;2023-12-20T05:51:03;101638.47;;;6.33;100.00
11440;BME280;5776;51.814;4.510;2023-12-20T05:53:30;101635.88;;;6.38;100.00
11440;BME280;5776;51.814;4.510;2023-12-20T05:55:56;101630.34;;;6.45;100.00
11440;BME280;5776;51.814;4.510;2023-12-20T05:58:23;101636.88;;;6.49;100.00
11440;BME280;5776;51.814;4.510;2023-12-20T06:00:49;101636.88;;;6.49;100.00
11440;BME280;5776;51.814;4.510;2023-12-20T06:03:15;101642.78;;;6.46;100.00
11440;BME280;5776;51.814;4.510;2023-12-20T06:05:41;101642.78;;;6.46;100.00
11440;BME280;5776;51.814;4.510;2023-12-20T06:08:07;101639.84;;;6.47;100.00
11440;BME280;5776;51.814;4.510;2023-12-20T06:10:33;101639.50;;;6.44;100.00
11440;BME280;5776;51.814;4.510;2023-12-20T06:12:58;101635.75;;;6.45;100.00
11440;BME280;5776;51.814;4.510;2023-12-20T06:15:26;101640.56;;;6.43;100.00
11440;BME280;5776;51.814;4.510;2023-12-20T06:17:53;101641.25;;;6.50;100.00
11440;BME280;5776;51.814;4.510;2023-12-20T06:20:19;101643.50;;;6.41;100.00
11440;BME280;5776;51.814;4.510;2023-12-20T06:22:45;101644.88;;;6.44;100.00
11440;BME280;5776;51.814;4.510;2023-12-20T06:25:11;101640.78;;;6.41;100.00
11440;BME280;5776;51.814;4.510;2023-12-20T06:27:37;101654.38;;;6.46;100.00
11440;BME280;5776;51.814;4.510;2023-12-20T06:30:03;101655.19;;;6.47;100.00
11440;BME280;5776;51.814;4.510;2023-12-20T06:32:29;101649.78;;;6.47;100.00
11440;BME280;5776;51.814;4.510;2023-12-20T06:34:55;101643.94;;;6.50;100.00
11440;BME280;5776;51.814;4.510;2023-12-20T06:37:21;101657.75;;;6.54;100.00
11440;BME280;5776;51.814;4.510;2023-12-20T06:39:47;101648.38;;;6.56;100.00
11440;BME280;5776;51.814;4.510;2023-12-20T06:42:13;101647.41;;;6.62;100.00
11440;BME280;5776;51.814;4.510;2023-12-20T06:44:38;101645.25;;;6.64;100.00
11440;BME280;5776;51.814;4.510;2023-12-20T06:47:05;101643.97;;;6.67;100.00
11440;BME280;5776;51.814;4.510;2023-12-20T06:49:31;101640.53;;;6.71;100.00
11440;BME280;5776;51.814;4.510;2023-12-20T06:51:57;101636.44;;;6.69;100.00
11440;BME280;5776;51.814;4.510;2023-12-20T06:54:23;101636.34;;;6.64;100.00
11440;BME280;5776;51.814;4.510;2023-12-20T06:56:48;101633.16;;;6.67;100.00
11440;BME280;5776;51.814;4.510;2023-12-20T06:59:14;101627.94;;;6.60;100.00
11440;BME280;5776;51.814;4.510;2023-12-20T07:01:41;101643.97;;;6.67;100.00
11440;BME280;5776;51.814;4.510;2023-12-20T07:04:08;101635.06;;;6.66;100.00
11440;BME280;5776;51.814;4.510;2023-12-20T07:06:34;101616.25;;;6.71;100.00
11440;BME280;5776;51.814;4.510;2023-12-20T07:09:00;101616.50;;;6.70;100.00
11440;BME280;5776;51.814;4.510;2023-12-20T07:11:26;101610.25;;;6.69;100.00
11440;BME280;5776;51.814;4.510;2023-12-20T07:13:54;101611.34;;;6.68;100.00
11440;BME280;5776;51.814;4.510;2023-12-20T07:16:20;101610.03;;;6.71;100.00
11440;BME280;5776;51.814;4.510;2023-12-20T07:18:46;101617.81;;;6.67;100.00
11440;BME280;5776;51.814;4.510;2023-12-20T07:21:12;101617.56;;;6.69;100.00
11440;BME280;5776;51.814;4.510;2023-12-20T07:23:38;101619.75;;;6.72;100.00
11440;BME280;5776;51.814;4.510;2023-12-20T07:26:04;101610.03;;;6.71;100.00
11440;BME280;5776;51.814;4.510;2023-12-20T07:28:30;101602.75;;;6.71;100.00
11440;BME280;5776;51.814;4.510;2023-12-20T07:30:56;101608.53;;;6.63;100.00
11440;BME280;5776;51.814;4.510;2023-12-20T07:33:23;101601.25;;;6.64;100.00
11440;BME280;5776;51.814;4.510;2023-12-20T07:35:48;101609.84;;;6.61;100.00
11440;BME280;5776;51.814;4.510;2023-12-20T07:38:14;101611.97;;;6.59;100.00
11440;BME280;5776;51.814;4.510;2023-12-20T07:40:40;101614.03;;;6.68;100.00
11440;BME280;5776;51.814;4.510;2023-12-20T07:43:06;101612.97;;;6.69;100.00
11440;BME280;5776;51.814;4.510;2023-12-20T07:45:32;101610.84;;;6.71;100.00
11440;BME280;5776;51.814;4.510;2023-12-20T07:47:58;101620.50;;;6.67;100.00
11440;BME280;5776;51.814;4.510;2023-12-20T07:50:24;101627.94;;;6.60;100.00
11440;BME280;5776;51.814;4.510;2023-12-20T07:52:50;101623.13;;;6.62;100.00
11440;BME280;5776;51.814;4.510;2023-12-20T07:55:16;101636.34;;;6.64;100.00
11440;BME280;5776;51.814;4.510;2023-12-20T07:57:41;101638.25;;;6.63;100.00
11440;BME280;5776;51.814;4.510;2023-12-20T08:00:07;101642.97;;;6.56;100.00
11440;BME280;5776;51.814;4.510;2023-12-20T08:02:35;101636.44;;;6.52;100.00
11440;BME280;5776;51.814;4.510;2023-12-20T08:05:02;101639.00;;;6.47;100.00
11440;BME280;5776;51.814;4.510;2023-12-20T08:07:28;101651.69;;;6.46;100.00
11440;BME280;5776;51.814;4.510;2023-12-20T08:09:54;101644.41;;;6.47;100.00
11440;BME280;5776;51.814;4.510;2023-12-20T08:12:23;101647.09;;;6.47;100.00
11440;BME280;5776;51.814;4.510;2023-12-20T08:14:49;101632.78;;;6.46;100.00
11440;BME280;5776;51.814;4.510;2023-12-20T08:17:14;101644.88;;;6.44;100.00
11440;BME280;5776;51.814;4.510;2023-12-20T08:19:41;101644.97;;;6.49;100.00
11440;BME280;5776;51.814;4.510;2023-12-20T08:22:07;101635.25;;;6.48;100.00
11440;BME280;5776;51.814;4.510;2023-12-20T08:24:33;101633.50;;;6.42;100.00
11440;BME280;5776;51.814;4.510;2023-12-20T08:26:59;101625.28;;;6.48;100.00
11440;BME280;5776;51.814;4.510;2023-12-20T08:29:25;101619.84;;;6.60;100.00
11440;BME280;5776;51.814;4.510;2023-12-20T08:31:55;101620.88;;;6.59;100.00
11440;BME280;5776;51.814;4.510;2023-12-20T08:34:21;101625.31;;;6.65;100.00
11440;BME280;5776;51.814;4.510;2023-12-20T08:36:46;101618.53;;;6.63;100.00
11440;BME280;5776;51.814;4.510;2023-12-20T08:39:12;101620.25;;;6.69;100.00
11440;BME280;5776;51.814;4.510;2023-12-20T08:41:38;101633.44;;;6.65;100.00
11440;BME280;5776;51.814;4.510;2023-12-20T08:44:04;101639.97;;;6.69;100.00
11440;BME280;5776;51.814;4.510;2023-12-20T08:46:30;101643.16;;;6.66;100.00
11440;BME280;5776;51.814;4.510;2023-12-20T08:48:57;101647.09;;;6.76;100.00
11440;BME280;5776;51.814;4.510;2023-12-20T08:51:23;101645.94;;;6.71;100.00
11440;BME280;5776;51.814;4.510;2023-12-20T08:53:51;101641.34;;;6.72;100.00
11440;BME280;5776;51.814;4.510;2023-12-20T08:56:17;101648.72;;;6.77;100.00
11440;BME280;5776;51.814;4.510;2023-12-20T08:58:43;101649.09;;;6.80;100.00
11440;BME280;5776;51.814;4.510;2023-12-20T09:01:09;101639.09;;;6.81;100.00
11440;BME280;5776;51.814;4.510;2023-12-20T09:03:35;101633.19;;;6.84;100.00
11440;BME280;5776;51.814;4.510;2023-12-20T09:06:01;101630.59;;;6.89;100.00
11440;BME280;5776;51.814;4.510;2023-12-20T09:08:27;101636.34;;;6.92;100.00
11440;BME280;5776;51.814;4.510;2023-12-20T09:10:52;101637.72;;;6.95;100.00
11440;BME280;5776;51.814;4.510;2023-12-20T09:13:19;101635.84;;;6.96;100.00
11440;BME280;5776;51.814;4.510;2023-12-20T09:15:46;101641.56;;;6.99;100.00
11440;BME280;5776;51.814;4.510;2023-12-20T09:18:12;101627.25;;;6.99;100.00
11440;BME280;5776;51.814;4.510;2023-12-20T09:20:37;101631.84;;;6.98;100.00
11440;BME280;5776;51.814;4.510;2023-12-20T09:23:03;101626.50;;;7.03;100.00
11440;BME280;5776;51.814;4.510;2023-12-20T09:25:30;101623.25;;;7.01;100.00
11440;BME280;5776;51.814;4.510;2023-12-20T09:27:56;101622.28;;;7.07;100.00
11440;BME280;5776;51.814;4.510;2023-12-20T09:30:22;101624.47;;;7.10;100.00
11440;BME280;5776;51.814;4.510;2023-12-20T09:32:49;101624.22;;;7.12;100.00
11440;BME280;5776;51.814;4.510;2023-12-20T09:35:15;101627.25;;;7.16;100.00
11440;BME280;5776;51.814;4.510;2023-12-20T09:37:42;101626.69;;;7.13;100.00
11440;BME280;5776;51.814;4.510;2023-12-20T09:40:12;101643.69;;;7.14;100.00
11440;BME280;5776;51.814;4.510;2023-12-20T09:45:20;101625.59;;;7.14;100.00
11440;BME280;5776;51.814;4.510;2023-12-20T09:47:49;101634.88;;;7.19;100.00
11440;BME280;5776;51.814;4.510;2023-12-20T09:50:17;101623.56;;;7.22;100.00
11440;BME280;5776;51.814;4.510;2023-12-20T09:52:46;101624.38;;;7.22;100.00
11440;BME280;5776;51.814;4.510;2023-12-20T09:55:14;101636.59;;;7.25;100.00
11440;BME280;5776;51.814;4.510;2023-12-20T09:57:40;101638.53;;;7.29;100.00
11440;BME280;5776;51.814;4.510;2023-12-20T10:00:06;101637.16;;;7.27;100.00
11440;BME280;5776;51.814;4.510;2023-12-20T10:02:34;101644.78;;;7.30;100.00
11440;BME280;5776;51.814;4.510;2023-12-20T10:05:02;101646.19;;;7.32;100.00
11440;BME280;5776;51.814;4.510;2023-12-20T10:07:28;101645.69;;;7.35;100.00
11440;BME280;5776;51.814;4.510;2023-12-20T10:09:55;101637.31;;;7.37;100.00
11440;BME280;5776;51.814;4.510;2023-12-20T10:12:22;101622.75;;;7.38;100.00
11440;BME280;5776;51.814;4.510;2023-12-20T10:14:47;101631.66;;;7.39;100.00
11440;BME280;5776;51.814;4.510;2023-12-20T10:17:13;101639.84;;;7.44;100.00
11440;BME280;5776;51.814;4.510;2023-12-20T10:19:39;101645.84;;;7.46;100.00
11440;BME280;5776;51.814;4.510;2023-12-20T10:22:05;101639.34;;;7.47;100.00
11440;BME280;5776;51.814;4.510;2023-12-20T10:24:31;101640.75;;;7.49;100.00
11440;BME280;5776;51.814;4.510;2023-12-20T10:27:08;101636.72;;;7.52;100.00
11440;BME280;5776;51.814;4.510;2023-12-20T10:29:37;101627.28;;;7.54;100.00
11440;BME280;5776;51.814;4.510;2023-12-20T10:32:22;101636.25;;;7.55;100.00
11440;BME280;5776;51.814;4.510;2023-12-20T10:34:52;101623.28;;;7.57;100.00
11440;BME280;5776;51.814;4.510;2023-12-20T10:37:20;101613.53;;;7.56;100.00
11440;BME280;5776;51.814;4.510;2023-12-20T10:39:51;101614.69;;;7.60;100.00
11440;BME280;5776;51.814;4.510;2023-12-20T10:42:22;101609.03;;;7.62;100.00
11440;BME280;5776;51.814;4.510;2023-12-20T10:44:51;101616.63;;;7.65;100.00
11440;BME280;5776;51.814;4.510;2023-12-20T10:47:20;101603.38;;;7.63;100.00
11440;BME280;5776;51.814;4.510;2023-12-20T10:49:46;101602.06;;;7.66;100.00
11440;BME280;5776;51.814;4.510;2023-12-20T10:52:12;101593.69;;;7.67;100.00
11440;BME280;5776;51.814;4.510;2023-12-20T10:54:40;101593.19;;;7.70;100.00
11440;BME280;5776;51.814;4.510;2023-12-20T10:57:08;101587.53;;;7.72;100.00
11440;BME280;5776;51.814;4.510;2023-12-20T10:59:36;101595.06;;;7.70;100.00
11440;BME280;5776;51.814;4.510;2023-12-20T11:02:06;101597.28;;;7.73;100.00
11440;BME280;5776;51.814;4.510;2023-12-20T11:04:53;101599.47;;;7.76;100.00
11440;BME280;5776;51.814;4.510;2023-12-20T11:07:29;101594.31;;;7.74;100.00
11440;BME280;5776;51.814;4.510;2023-12-20T11:10:13;101613.56;;;7.78;100.00
11440;BME280;5776;51.814;4.510;2023-12-20T11:12:54;101596.28;;;7.79;100.00
11440;BME280;5776;51.814;4.510;2023-12-20T11:15:24;101593.34;;;7.81;100.00
11440;BME280;5776;51.814;4.510;2023-12-20T11:17:57;101592.00;;;7.83;100.00
11440;BME280;5776;51.814;4.510;2023-12-20T11:20:39;101586.09;;;7.86;100.00
11440;BME280;5776;51.814;4.510;2023-12-20T11:23:06;101578.78;;;7.87;100.00
11440;BME280;5776;51.814;4.510;2023-12-20T11:28:13;101572.06;;;7.89;100.00
11440;BME280;5776;51.814;4.510;2023-12-20T11:30:51;101561.00;;;7.91;100.00
11440;BME280;5776;51.814;4.510;2023-12-20T11:33:46;101563.44;;;7.92;100.00
11440;BME280;5776;51.814;4.510;2023-12-20T11:36:14;101544.03;;;7.95;100.00
11440;BME280;5776;51.814;4.510;2023-12-20T11:38:56;101547.03;;;7.99;100.00
11440;BME280;5776;51.814;4.510;2023-12-20T11:41:23;101541.63;;;7.99;100.00
11440;BME280;5776;51.814;4.510;2023-12-20T11:43:52;101549.47;;;8.00;100.00
11440;BME280;5776;51.814;4.510;2023-12-20T11:46:18;101546.78;;;8.00;100.00
11440;BME280;5776;51.814;4.510;2023-12-20T11:48:44;101546.25;;;8.04;100.00
11440;BME280;5776;51.814;4.510;2023-12-20T11:51:11;101553.34;;;8.10;100.00
11440;BME280;5776;51.814;4.510;2023-12-20T11:53:37;101549.59;;;8.11;100.00
11440;BME280;5776;51.814;4.510;2023-12-20T11:56:05;101553.91;;;8.12;100.00
11440;BME280;5776;51.814;4.510;2023-12-20T11:58:33;101556.38;;;8.13;100.00
11440;BME280;5776;51.814;4.510;2023-12-20T12:00:59;101547.50;;;8.18;100.00
11440;BME280;5776;51.814;4.510;2023-12-20T12:03:25;101541.59;;;8.21;100.00
11440;BME280;5776;51.814;4.510;2023-12-20T12:05:51;101525.91;;;8.23;100.00
11440;BME280;5776;51.814;4.510;2023-12-20T12:08:17;101538.88;;;8.21;100.00
11440;BME280;5776;51.814;4.510;2023-12-20T12:10:44;101537.56;;;8.23;100.00
11440;BME280;5776;51.814;4.510;2023-12-20T12:13:11;101532.94;;;8.24;100.00
11440;BME280;5776;51.814;4.510;2023-12-20T12:15:38;101547.28;;;8.25;100.00
11440;BME280;5776;51.814;4.510;2023-12-20T12:18:04;101537.56;;;8.23;100.00
11440;BME280;5776;51.814;4.510;2023-12-20T12:20:32;101539.50;;;8.28;100.00
11440;BME280;5776;51.814;4.510;2023-12-20T12:23:03;101532.72;;;8.26;100.00
11440;BME280;5776;51.814;4.510;2023-12-20T12:25:32;101533.81;;;8.30;100.00
11440;BME280;5776;51.814;4.510;2023-12-20T12:27:58;101527.34;;;8.31;100.00
11440;BME280;5776;51.814;4.510;2023-12-20T12:30:25;101524.34;;;8.32;100.00
11440;BME280;5776;51.814;4.510;2023-12-20T12:32:52;101520.28;;;8.30;100.00
11440;BME280;5776;51.814;4.510;2023-12-20T12:35:18;101505.69;;;8.31;100.00
11440;BME280;5776;51.814;4.510;2023-12-20T12:37:44;101526.25;;;8.32;100.00
11440;BME280;5776;51.814;4.510;2023-12-20T12:40:12;101510.00;;;8.32;100.00
11440;BME280;5776;51.814;4.510;2023-12-20T12:42:40;101499.00;;;8.38;100.00
11440;BME280;5776;51.814;4.510;2023-12-20T12:45:06;101500.56;;;8.34;100.00
11440;BME280;5776;51.814;4.510;2023-12-20T12:47:33;101504.34;;;8.33;100.00
11440;BME280;5776;51.814;4.510;2023-12-20T12:50:00;101506.50;;;8.31;100.00
11440;BME280;5776;51.814;4.510;2023-12-20T12:52:26;101504.94;;;8.35;100.00
11440;BME280;5776;51.814;4.510;2023-12-20T12:54:54;101498.94;;;8.33;100.00
11440;BME280;5776;51.814;4.510;2023-12-20T12:57:20;101488.94;;;8.34;100.00
11440;BME280;5776;51.814;4.510;2023-12-20T12:59:46;101494.63;;;8.37;100.00
11440;BME280;5776;51.814;4.510;2023-12-20T13:02:12;101485.97;;;8.35;100.00
11440;BME280;5776;51.814;4.510;2023-12-20T13:04:40;101485.97;;;8.35;100.00